Elmdale, Kansas
Current Conditions -  °F | °C
As of 5:53 AM on Friday 31 Oct 2014 (Local Time) from KEMP Reporting Station
Overcast Overcast  
Wind Chill: 32°   Ceiling: 2200
Heat Index: 41°   Visibility: 10mi
Dew Point: 33°   Wind: 20mph
Humidity: 73%   Direction: 360°N
Pressure: 30.38"   Gusts: 26mph
Location:  38.37°N, 96.64°W
Report Text: KEMP 311053Z AUTO 36017G23KT 10SM OVC022 05/01 A3038 RMK AO2 SLP291 T00500006
Loading
Personal Weather Stations






























Interactive Weather Map
Tropical Storm Tracking
New forecast layout! Learn more

10-Day Weather Forecast

Advertisements
Track Severe Weather on mobile